sensor_id;sensor_type;location;lat;lon;timestamp;P1;durP1;ratioP1;P2;durP2;ratioP2
71038;SDS011;58692;43.212;27.908;2023-09-18T00:02:18;7.63;;;3.50;;
71038;SDS011;58692;43.212;27.908;2023-09-18T00:04:43;8.43;;;3.58;;
71038;SDS011;58692;43.212;27.908;2023-09-18T00:07:09;8.40;;;3.33;;
71038;SDS011;58692;43.212;27.908;2023-09-18T00:09:36;7.32;;;3.80;;
71038;SDS011;58692;43.212;27.908;2023-09-18T00:12:01;8.03;;;3.77;;
71038;SDS011;58692;43.212;27.908;2023-09-18T00:14:27;8.93;;;3.83;;
71038;SDS011;58692;43.212;27.908;2023-09-18T00:16:52;8.63;;;3.77;;
71038;SDS011;58692;43.212;27.908;2023-09-18T00:19:18;6.73;;;3.50;;
71038;SDS011;58692;43.212;27.908;2023-09-18T00:21:43;7.13;;;3.45;;
71038;SDS011;58692;43.212;27.908;2023-09-18T00:24:09;6.87;;;3.70;;
71038;SDS011;58692;43.212;27.908;2023-09-18T00:26:36;7.75;;;3.97;;
71038;SDS011;58692;43.212;27.908;2023-09-18T00:29:02;7.23;;;4.10;;
71038;SDS011;58692;43.212;27.908;2023-09-18T00:31:27;8.77;;;4.30;;
71038;SDS011;58692;43.212;27.908;2023-09-18T00:33:53;7.50;;;3.57;;
71038;SDS011;58692;43.212;27.908;2023-09-18T00:36:18;6.33;;;3.40;;
71038;SDS011;58692;43.212;27.908;2023-09-18T00:38:44;8.20;;;3.50;;
71038;SDS011;58692;43.212;27.908;2023-09-18T00:41:09;8.17;;;4.00;;
71038;SDS011;58692;43.212;27.908;2023-09-18T00:43:35;7.10;;;4.13;;
71038;SDS011;58692;43.212;27.908;2023-09-18T00:46:01;7.65;;;4.05;;
71038;SDS011;58692;43.212;27.908;2023-09-18T00:48:26;8.67;;;4.00;;
71038;SDS011;58692;43.212;27.908;2023-09-18T00:50:53;8.45;;;4.07;;
71038;SDS011;58692;43.212;27.908;2023-09-18T00:53:21;7.82;;;4.32;;
71038;SDS011;58692;43.212;27.908;2023-09-18T00:55:49;8.05;;;3.78;;
71038;SDS011;58692;43.212;27.908;2023-09-18T00:58:18;7.85;;;4.15;;
71038;SDS011;58692;43.212;27.908;2023-09-18T01:00:44;8.90;;;3.90;;
71038;SDS011;58692;43.212;27.908;2023-09-18T01:03:10;9.02;;;4.13;;
71038;SDS011;58692;43.212;27.908;2023-09-18T01:05:36;7.73;;;3.70;;
71038;SDS011;58692;43.212;27.908;2023-09-18T01:08:01;7.75;;;4.00;;
71038;SDS011;58692;43.212;27.908;2023-09-18T01:10:31;8.13;;;4.07;;
71038;SDS011;58692;43.212;27.908;2023-09-18T01:13:04;8.65;;;4.10;;
71038;SDS011;58692;43.212;27.908;2023-09-18T01:15:40;7.32;;;4.10;;
71038;SDS011;58692;43.212;27.908;2023-09-18T01:18:10;7.93;;;4.13;;
71038;SDS011;58692;43.212;27.908;2023-09-18T01:20:36;7.47;;;4.13;;
71038;SDS011;58692;43.212;27.908;2023-09-18T01:23:01;9.43;;;4.00;;
71038;SDS011;58692;43.212;27.908;2023-09-18T01:25:27;8.17;;;4.10;;
71038;SDS011;58692;43.212;27.908;2023-09-18T01:27:55;7.10;;;4.20;;
71038;SDS011;58692;43.212;27.908;2023-09-18T01:30:20;9.57;;;4.50;;
71038;SDS011;58692;43.212;27.908;2023-09-18T01:32:46;9.30;;;4.32;;
71038;SDS011;58692;43.212;27.908;2023-09-18T01:35:12;8.37;;;4.13;;
71038;SDS011;58692;43.212;27.908;2023-09-18T01:37:39;8.63;;;4.43;;
71038;SDS011;58692;43.212;27.908;2023-09-18T01:40:06;8.43;;;4.35;;
71038;SDS011;58692;43.212;27.908;2023-09-18T01:42:32;8.68;;;4.40;;
71038;SDS011;58692;43.212;27.908;2023-09-18T01:44:59;8.23;;;4.03;;
71038;SDS011;58692;43.212;27.908;2023-09-18T01:47:25;8.87;;;4.47;;
71038;SDS011;58692;43.212;27.908;2023-09-18T01:49:52;9.55;;;4.10;;
71038;SDS011;58692;43.212;27.908;2023-09-18T01:52:18;7.90;;;4.43;;
71038;SDS011;58692;43.212;27.908;2023-09-18T01:54:43;8.63;;;4.43;;
71038;SDS011;58692;43.212;27.908;2023-09-18T01:57:09;7.72;;;4.10;;
71038;SDS011;58692;43.212;27.908;2023-09-18T01:59:35;8.30;;;4.00;;
71038;SDS011;58692;43.212;27.908;2023-09-18T02:02:00;8.85;;;4.50;;
71038;SDS011;58692;43.212;27.908;2023-09-18T02:04:28;8.83;;;4.53;;
71038;SDS011;58692;43.212;27.908;2023-09-18T02:06:54;9.77;;;4.97;;
71038;SDS011;58692;43.212;27.908;2023-09-18T02:09:20;8.43;;;4.53;;
71038;SDS011;58692;43.212;27.908;2023-09-18T02:11:46;8.87;;;4.50;;
71038;SDS011;58692;43.212;27.908;2023-09-18T02:14:13;8.10;;;4.20;;
71038;SDS011;58692;43.212;27.908;2023-09-18T02:16:40;8.07;;;4.32;;
71038;SDS011;58692;43.212;27.908;2023-09-18T02:19:07;8.30;;;4.37;;
71038;SDS011;58692;43.212;27.908;2023-09-18T02:21:33;8.38;;;4.28;;
71038;SDS011;58692;43.212;27.908;2023-09-18T02:23:59;9.77;;;4.50;;
71038;SDS011;58692;43.212;27.908;2023-09-18T02:26:25;10.60;;;4.40;;
71038;SDS011;58692;43.212;27.908;2023-09-18T02:28:52;9.50;;;4.57;;
71038;SDS011;58692;43.212;27.908;2023-09-18T02:31:18;8.32;;;4.30;;
71038;SDS011;58692;43.212;27.908;2023-09-18T02:33:44;8.33;;;4.63;;
71038;SDS011;58692;43.212;27.908;2023-09-18T02:36:09;8.05;;;4.45;;
71038;SDS011;58692;43.212;27.908;2023-09-18T02:38:35;8.47;;;4.60;;
71038;SDS011;58692;43.212;27.908;2023-09-18T02:41:00;8.95;;;4.50;;
71038;SDS011;58692;43.212;27.908;2023-09-18T02:43:26;9.50;;;4.83;;
71038;SDS011;58692;43.212;27.908;2023-09-18T02:45:52;9.17;;;4.87;;
71038;SDS011;58692;43.212;27.908;2023-09-18T02:48:17;9.10;;;4.93;;
71038;SDS011;58692;43.212;27.908;2023-09-18T02:50:43;9.20;;;4.80;;
71038;SDS011;58692;43.212;27.908;2023-09-18T02:53:12;10.80;;;5.20;;
71038;SDS011;58692;43.212;27.908;2023-09-18T02:55:49;9.05;;;4.50;;
71038;SDS011;58692;43.212;27.908;2023-09-18T02:58:16;9.27;;;4.80;;
71038;SDS011;58692;43.212;27.908;2023-09-18T03:00:43;9.43;;;4.77;;
71038;SDS011;58692;43.212;27.908;2023-09-18T03:03:09;10.30;;;4.78;;
71038;SDS011;58692;43.212;27.908;2023-09-18T03:05:35;12.45;;;4.68;;
71038;SDS011;58692;43.212;27.908;2023-09-18T03:08:01;10.27;;;5.53;;
71038;SDS011;58692;43.212;27.908;2023-09-18T03:10:27;10.60;;;5.03;;
71038;SDS011;58692;43.212;27.908;2023-09-18T03:12:52;10.47;;;5.33;;
71038;SDS011;58692;43.212;27.908;2023-09-18T03:15:17;14.18;;;6.30;;
71038;SDS011;58692;43.212;27.908;2023-09-18T03:17:44;13.13;;;6.00;;
71038;SDS011;58692;43.212;27.908;2023-09-18T03:20:09;10.57;;;5.70;;
71038;SDS011;58692;43.212;27.908;2023-09-18T03:22:35;9.93;;;5.65;;
71038;SDS011;58692;43.212;27.908;2023-09-18T03:25:00;13.33;;;5.47;;
71038;SDS011;58692;43.212;27.908;2023-09-18T03:27:26;12.93;;;5.63;;
71038;SDS011;58692;43.212;27.908;2023-09-18T03:29:54;11.65;;;5.50;;
71038;SDS011;58692;43.212;27.908;2023-09-18T03:32:20;12.10;;;5.53;;
71038;SDS011;58692;43.212;27.908;2023-09-18T03:34:46;12.45;;;5.40;;
71038;SDS011;58692;43.212;27.908;2023-09-18T03:37:12;14.80;;;6.23;;
71038;SDS011;58692;43.212;27.908;2023-09-18T03:39:37;11.93;;;6.00;;
71038;SDS011;58692;43.212;27.908;2023-09-18T03:42:03;11.60;;;5.67;;
71038;SDS011;58692;43.212;27.908;2023-09-18T03:44:28;15.90;;;5.80;;
71038;SDS011;58692;43.212;27.908;2023-09-18T03:46:54;11.93;;;6.25;;
71038;SDS011;58692;43.212;27.908;2023-09-18T03:49:19;11.83;;;5.60;;
71038;SDS011;58692;43.212;27.908;2023-09-18T03:51:45;13.15;;;5.72;;
71038;SDS011;58692;43.212;27.908;2023-09-18T03:54:11;11.90;;;6.00;;
71038;SDS011;58692;43.212;27.908;2023-09-18T03:56:36;10.20;;;5.67;;
71038;SDS011;58692;43.212;27.908;2023-09-18T03:59:02;11.32;;;5.68;;
71038;SDS011;58692;43.212;27.908;2023-09-18T04:01:27;11.67;;;5.60;;
71038;SDS011;58692;43.212;27.908;2023-09-18T04:03:53;13.00;;;6.28;;
71038;SDS011;58692;43.212;27.908;2023-09-18T04:06:20;9.83;;;6.03;;
71038;SDS011;58692;43.212;27.908;2023-09-18T04:08:46;10.75;;;5.80;;
71038;SDS011;58692;43.212;27.908;2023-09-18T04:11:12;10.60;;;5.85;;
71038;SDS011;58692;43.212;27.908;2023-09-18T04:13:37;9.80;;;5.40;;
71038;SDS011;58692;43.212;27.908;2023-09-18T04:16:04;11.33;;;5.43;;
71038;SDS011;58692;43.212;27.908;2023-09-18T04:18:30;12.05;;;6.03;;
71038;SDS011;58692;43.212;27.908;2023-09-18T04:20:58;11.38;;;5.70;;
71038;SDS011;58692;43.212;27.908;2023-09-18T04:23:24;10.70;;;5.57;;
71038;SDS011;58692;43.212;27.908;2023-09-18T04:25:52;11.20;;;6.17;;
71038;SDS011;58692;43.212;27.908;2023-09-18T04:28:19;10.52;;;5.70;;
71038;SDS011;58692;43.212;27.908;2023-09-18T04:30:47;10.18;;;5.40;;
71038;SDS011;58692;43.212;27.908;2023-09-18T04:33:13;10.70;;;5.10;;
71038;SDS011;58692;43.212;27.908;2023-09-18T04:35:39;10.30;;;5.80;;
71038;SDS011;58692;43.212;27.908;2023-09-18T04:38:06;10.20;;;5.65;;
71038;SDS011;58692;43.212;27.908;2023-09-18T04:40:33;10.32;;;5.18;;
71038;SDS011;58692;43.212;27.908;2023-09-18T04:43:00;10.63;;;5.47;;
71038;SDS011;58692;43.212;27.908;2023-09-18T04:45:28;12.80;;;5.35;;
71038;SDS011;58692;43.212;27.908;2023-09-18T04:47:56;9.73;;;5.60;;
71038;SDS011;58692;43.212;27.908;2023-09-18T04:50:22;9.70;;;5.68;;
71038;SDS011;58692;43.212;27.908;2023-09-18T04:52:47;10.03;;;5.40;;
71038;SDS011;58692;43.212;27.908;2023-09-18T04:55:13;12.45;;;6.05;;
71038;SDS011;58692;43.212;27.908;2023-09-18T04:57:39;11.10;;;6.03;;
71038;SDS011;58692;43.212;27.908;2023-09-18T05:00:05;15.10;;;6.20;;
71038;SDS011;58692;43.212;27.908;2023-09-18T05:02:37;10.45;;;5.82;;
71038;SDS011;58692;43.212;27.908;2023-09-18T05:05:04;10.13;;;5.88;;
71038;SDS011;58692;43.212;27.908;2023-09-18T05:07:30;13.98;;;6.40;;
71038;SDS011;58692;43.212;27.908;2023-09-18T05:09:56;10.77;;;5.83;;
71038;SDS011;58692;43.212;27.908;2023-09-18T05:12:22;10.70;;;5.95;;
71038;SDS011;58692;43.212;27.908;2023-09-18T05:14:48;12.00;;;5.95;;
71038;SDS011;58692;43.212;27.908;2023-09-18T05:17:19;9.63;;;5.77;;
71038;SDS011;58692;43.212;27.908;2023-09-18T05:20:04;11.27;;;5.95;;
71038;SDS011;58692;43.212;27.908;2023-09-18T05:22:37;10.20;;;5.55;;
71038;SDS011;58692;43.212;27.908;2023-09-18T05:25:03;9.68;;;5.60;;
71038;SDS011;58692;43.212;27.908;2023-09-18T05:27:31;12.75;;;6.13;;
71038;SDS011;58692;43.212;27.908;2023-09-18T05:29:56;8.90;;;5.57;;
71038;SDS011;58692;43.212;27.908;2023-09-18T05:32:22;11.97;;;6.20;;
71038;SDS011;58692;43.212;27.908;2023-09-18T05:34:47;11.40;;;5.50;;
71038;SDS011;58692;43.212;27.908;2023-09-18T05:37:13;9.57;;;5.77;;
71038;SDS011;58692;43.212;27.908;2023-09-18T05:39:39;10.05;;;5.50;;
71038;SDS011;58692;43.212;27.908;2023-09-18T05:42:05;12.55;;;5.90;;
71038;SDS011;58692;43.212;27.908;2023-09-18T05:44:30;14.63;;;7.33;;
71038;SDS011;58692;43.212;27.908;2023-09-18T05:46:56;10.93;;;5.47;;
71038;SDS011;58692;43.212;27.908;2023-09-18T05:49:21;11.63;;;5.82;;
71038;SDS011;58692;43.212;27.908;2023-09-18T05:51:47;9.90;;;5.60;;
71038;SDS011;58692;43.212;27.908;2023-09-18T05:54:14;10.05;;;5.90;;
71038;SDS011;58692;43.212;27.908;2023-09-18T05:56:40;11.48;;;5.55;;
71038;SDS011;58692;43.212;27.908;2023-09-18T05:59:13;13.00;;;5.60;;
71038;SDS011;58692;43.212;27.908;2023-09-18T06:01:41;11.00;;;5.43;;
71038;SDS011;58692;43.212;27.908;2023-09-18T06:04:09;12.57;;;5.93;;
71038;SDS011;58692;43.212;27.908;2023-09-18T06:06:36;9.20;;;4.88;;
71038;SDS011;58692;43.212;27.908;2023-09-18T06:09:01;12.03;;;5.70;;
71038;SDS011;58692;43.212;27.908;2023-09-18T06:11:27;12.02;;;5.30;;
71038;SDS011;58692;43.212;27.908;2023-09-18T06:13:52;10.67;;;5.27;;
71038;SDS011;58692;43.212;27.908;2023-09-18T06:16:19;9.73;;;5.70;;
71038;SDS011;58692;43.212;27.908;2023-09-18T06:18:45;8.83;;;5.27;;
71038;SDS011;58692;43.212;27.908;2023-09-18T06:21:10;12.18;;;5.40;;
71038;SDS011;58692;43.212;27.908;2023-09-18T06:23:37;11.80;;;5.77;;
71038;SDS011;58692;43.212;27.908;2023-09-18T06:26:02;10.30;;;5.25;;
71038;SDS011;58692;43.212;27.908;2023-09-18T06:28:29;10.65;;;5.50;;
71038;SDS011;58692;43.212;27.908;2023-09-18T06:30:55;9.93;;;5.23;;
71038;SDS011;58692;43.212;27.908;2023-09-18T06:33:21;10.73;;;5.22;;
71038;SDS011;58692;43.212;27.908;2023-09-18T06:35:47;10.93;;;4.90;;
71038;SDS011;58692;43.212;27.908;2023-09-18T06:38:13;9.17;;;4.93;;
71038;SDS011;58692;43.212;27.908;2023-09-18T06:40:40;10.63;;;4.97;;
71038;SDS011;58692;43.212;27.908;2023-09-18T06:43:06;9.80;;;4.90;;
71038;SDS011;58692;43.212;27.908;2023-09-18T06:45:31;13.47;;;5.10;;
71038;SDS011;58692;43.212;27.908;2023-09-18T06:47:58;12.05;;;5.13;;
71038;SDS011;58692;43.212;27.908;2023-09-18T06:50:25;7.90;;;4.60;;
71038;SDS011;58692;43.212;27.908;2023-09-18T06:52:51;11.02;;;5.55;;
71038;SDS011;58692;43.212;27.908;2023-09-18T06:55:17;9.97;;;5.00;;
71038;SDS011;58692;43.212;27.908;2023-09-18T06:57:43;9.20;;;5.22;;
71038;SDS011;58692;43.212;27.908;2023-09-18T07:00:08;10.43;;;5.22;;
71038;SDS011;58692;43.212;27.908;2023-09-18T07:02:35;9.20;;;4.77;;
71038;SDS011;58692;43.212;27.908;2023-09-18T07:05:08;9.85;;;4.78;;
71038;SDS011;58692;43.212;27.908;2023-09-18T07:07:34;9.35;;;5.43;;
71038;SDS011;58692;43.212;27.908;2023-09-18T07:10:02;9.32;;;5.22;;
71038;SDS011;58692;43.212;27.908;2023-09-18T07:12:28;8.02;;;4.47;;
71038;SDS011;58692;43.212;27.908;2023-09-18T07:14:53;8.23;;;4.70;;
71038;SDS011;58692;43.212;27.908;2023-09-18T07:17:19;7.20;;;4.53;;
71038;SDS011;58692;43.212;27.908;2023-09-18T07:19:44;11.93;;;6.07;;
71038;SDS011;58692;43.212;27.908;2023-09-18T07:22:10;12.97;;;5.90;;
71038;SDS011;58692;43.212;27.908;2023-09-18T07:24:35;9.07;;;5.57;;
71038;SDS011;58692;43.212;27.908;2023-09-18T07:27:04;10.07;;;4.90;;
71038;SDS011;58692;43.212;27.908;2023-09-18T07:29:29;8.68;;;4.93;;
71038;SDS011;58692;43.212;27.908;2023-09-18T07:31:55;9.73;;;4.60;;
71038;SDS011;58692;43.212;27.908;2023-09-18T07:34:21;8.65;;;4.65;;
71038;SDS011;58692;43.212;27.908;2023-09-18T07:36:46;10.73;;;4.73;;
71038;SDS011;58692;43.212;27.908;2023-09-18T07:39:12;9.60;;;4.50;;
71038;SDS011;58692;43.212;27.908;2023-09-18T07:41:37;10.05;;;4.65;;
71038;SDS011;58692;43.212;27.908;2023-09-18T07:44:04;9.53;;;4.17;;
71038;SDS011;58692;43.212;27.908;2023-09-18T07:46:30;9.60;;;4.25;;
71038;SDS011;58692;43.212;27.908;2023-09-18T07:48:59;9.02;;;4.28;;
71038;SDS011;58692;43.212;27.908;2023-09-18T07:51:24;8.67;;;3.73;;
71038;SDS011;58692;43.212;27.908;2023-09-18T07:53:49;9.47;;;3.70;;
71038;SDS011;58692;43.212;27.908;2023-09-18T07:56:15;9.80;;;3.80;;
71038;SDS011;58692;43.212;27.908;2023-09-18T07:58:41;7.20;;;3.70;;
71038;SDS011;58692;43.212;27.908;2023-09-18T08:01:06;7.65;;;3.90;;
71038;SDS011;58692;43.212;27.908;2023-09-18T08:03:34;9.30;;;3.90;;
71038;SDS011;58692;43.212;27.908;2023-09-18T08:05:59;9.18;;;3.38;;
71038;SDS011;58692;43.212;27.908;2023-09-18T08:08:25;9.43;;;3.27;;
71038;SDS011;58692;43.212;27.908;2023-09-18T08:10:51;11.82;;;3.60;;
71038;SDS011;58692;43.212;27.908;2023-09-18T08:13:17;8.25;;;3.60;;
71038;SDS011;58692;43.212;27.908;2023-09-18T08:15:43;9.27;;;4.07;;
71038;SDS011;58692;43.212;27.908;2023-09-18T08:18:09;8.73;;;3.95;;
71038;SDS011;58692;43.212;27.908;2023-09-18T08:20:41;8.43;;;3.90;;
71038;SDS011;58692;43.212;27.908;2023-09-18T08:23:08;9.52;;;3.88;;
71038;SDS011;58692;43.212;27.908;2023-09-18T08:25:35;8.52;;;3.97;;
71038;SDS011;58692;43.212;27.908;2023-09-18T08:28:02;9.77;;;4.03;;
71038;SDS011;58692;43.212;27.908;2023-09-18T08:30:38;8.65;;;3.95;;
71038;SDS011;58692;43.212;27.908;2023-09-18T08:33:33;6.38;;;3.40;;
71038;SDS011;58692;43.212;27.908;2023-09-18T08:36:17;7.82;;;3.22;;
71038;SDS011;58692;43.212;27.908;2023-09-18T08:39:05;9.55;;;3.72;;
71038;SDS011;58692;43.212;27.908;2023-09-18T08:41:32;6.37;;;3.50;;
71038;SDS011;58692;43.212;27.908;2023-09-18T08:44:03;7.25;;;3.63;;
71038;SDS011;58692;43.212;27.908;2023-09-18T08:46:32;8.60;;;4.00;;
71038;SDS011;58692;43.212;27.908;2023-09-18T08:48:59;8.00;;;3.58;;
71038;SDS011;58692;43.212;27.908;2023-09-18T08:51:25;11.13;;;3.60;;
71038;SDS011;58692;43.212;27.908;2023-09-18T08:53:52;8.10;;;3.38;;
71038;SDS011;58692;43.212;27.908;2023-09-18T08:56:19;7.72;;;3.85;;
71038;SDS011;58692;43.212;27.908;2023-09-18T08:58:46;6.57;;;3.72;;
71038;SDS011;58692;43.212;27.908;2023-09-18T09:01:15;7.90;;;3.90;;
71038;SDS011;58692;43.212;27.908;2023-09-18T09:03:41;9.50;;;4.07;;
71038;SDS011;58692;43.212;27.908;2023-09-18T09:06:10;8.07;;;4.03;;
71038;SDS011;58692;43.212;27.908;2023-09-18T09:08:37;8.07;;;3.70;;
71038;SDS011;58692;43.212;27.908;2023-09-18T09:11:04;8.32;;;4.03;;
71038;SDS011;58692;43.212;27.908;2023-09-18T09:13:30;7.90;;;4.00;;
71038;SDS011;58692;43.212;27.908;2023-09-18T09:15:57;7.50;;;4.10;;
71038;SDS011;58692;43.212;27.908;2023-09-18T09:18:24;8.32;;;3.90;;
71038;SDS011;58692;43.212;27.908;2023-09-18T09:20:53;7.43;;;4.03;;
71038;SDS011;58692;43.212;27.908;2023-09-18T09:23:23;7.15;;;3.70;;
71038;SDS011;58692;43.212;27.908;2023-09-18T09:25:51;7.80;;;3.50;;
71038;SDS011;58692;43.212;27.908;2023-09-18T09:28:28;8.70;;;3.87;;
71038;SDS011;58692;43.212;27.908;2023-09-18T09:31:03;6.93;;;3.50;;
71038;SDS011;58692;43.212;27.908;2023-09-18T09:33:29;8.02;;;3.67;;
71038;SDS011;58692;43.212;27.908;2023-09-18T09:35:55;8.05;;;3.75;;
71038;SDS011;58692;43.212;27.908;2023-09-18T09:38:30;8.77;;;3.70;;
71038;SDS011;58692;43.212;27.908;2023-09-18T09:41:02;7.50;;;3.90;;
71038;SDS011;58692;43.212;27.908;2023-09-18T09:43:32;6.70;;;3.50;;
71038;SDS011;58692;43.212;27.908;2023-09-18T09:45:59;7.45;;;4.40;;
71038;SDS011;58692;43.212;27.908;2023-09-18T09:48:25;7.38;;;3.30;;
71038;SDS011;58692;43.212;27.908;2023-09-18T09:50:52;7.20;;;3.50;;
71038;SDS011;58692;43.212;27.908;2023-09-18T09:53:41;8.43;;;3.70;;
71038;SDS011;58692;43.212;27.908;2023-09-18T09:56:16;7.38;;;3.97;;
71038;SDS011;58692;43.212;27.908;2023-09-18T10:01:33;9.48;;;3.72;;
71038;SDS011;58692;43.212;27.908;2023-09-18T10:04:02;6.95;;;3.90;;
71038;SDS011;58692;43.212;27.908;2023-09-18T10:06:33;7.47;;;3.50;;
71038;SDS011;58692;43.212;27.908;2023-09-18T10:09:01;5.72;;;3.10;;
71038;SDS011;58692;43.212;27.908;2023-09-18T10:11:36;5.70;;;3.30;;
71038;SDS011;58692;43.212;27.908;2023-09-18T10:14:08;6.40;;;3.13;;
71038;SDS011;58692;43.212;27.908;2023-09-18T10:16:38;7.53;;;3.45;;
71038;SDS011;58692;43.212;27.908;2023-09-18T10:19:11;5.63;;;3.27;;
71038;SDS011;58692;43.212;27.908;2023-09-18T10:21:49;7.20;;;3.28;;
71038;SDS011;58692;43.212;27.908;2023-09-18T10:24:54;6.25;;;3.28;;
71038;SDS011;58692;43.212;27.908;2023-09-18T10:27:25;7.90;;;3.17;;
71038;SDS011;58692;43.212;27.908;2023-09-18T10:29:53;6.38;;;3.20;;
71038;SDS011;58692;43.212;27.908;2023-09-18T10:33:03;6.10;;;3.10;;
71038;SDS011;58692;43.212;27.908;2023-09-18T10:35:32;5.65;;;3.10;;
71038;SDS011;58692;43.212;27.908;2023-09-18T10:38:00;7.60;;;3.38;;
71038;SDS011;58692;43.212;27.908;2023-09-18T10:40:27;6.60;;;3.00;;
71038;SDS011;58692;43.212;27.908;2023-09-18T10:42:55;9.32;;;3.00;;
71038;SDS011;58692;43.212;27.908;2023-09-18T10:45:23;7.77;;;3.23;;
71038;SDS011;58692;43.212;27.908;2023-09-18T10:47:49;7.90;;;3.25;;
71038;SDS011;58692;43.212;27.908;2023-09-18T10:50:22;8.05;;;3.33;;
71038;SDS011;58692;43.212;27.908;2023-09-18T10:52:52;6.72;;;3.20;;
71038;SDS011;58692;43.212;27.908;2023-09-18T10:55:18;5.97;;;3.25;;
71038;SDS011;58692;43.212;27.908;2023-09-18T10:57:51;7.30;;;3.30;;
71038;SDS011;58692;43.212;27.908;2023-09-18T11:00:21;7.03;;;3.63;;
71038;SDS011;58692;43.212;27.908;2023-09-18T11:02:51;7.13;;;3.42;;
71038;SDS011;58692;43.212;27.908;2023-09-18T11:10:58;8.25;;;3.47;;
71038;SDS011;58692;43.212;27.908;2023-09-18T11:13:29;7.90;;;3.70;;
71038;SDS011;58692;43.212;27.908;2023-09-18T11:16:00;7.90;;;3.90;;
71038;SDS011;58692;43.212;27.908;2023-09-18T11:18:35;6.90;;;3.15;;
71038;SDS011;58692;43.212;27.908;2023-09-18T11:21:11;6.00;;;2.90;;
71038;SDS011;58692;43.212;27.908;2023-09-18T11:23:38;7.35;;;3.42;;
71038;SDS011;58692;43.212;27.908;2023-09-18T11:26:08;6.10;;;3.60;;
71038;SDS011;58692;43.212;27.908;2023-09-18T11:28:35;7.35;;;3.63;;
71038;SDS011;58692;43.212;27.908;2023-09-18T11:31:02;6.63;;;3.50;;
71038;SDS011;58692;43.212;27.908;2023-09-18T11:33:32;8.13;;;3.80;;
71038;SDS011;58692;43.212;27.908;2023-09-18T11:36:03;8.45;;;3.90;;
71038;SDS011;58692;43.212;27.908;2023-09-18T11:38:31;6.60;;;3.50;;
71038;SDS011;58692;43.212;27.908;2023-09-18T11:40:59;7.43;;;3.60;;
71038;SDS011;58692;43.212;27.908;2023-09-18T11:43:27;8.90;;;3.47;;
71038;SDS011;58692;43.212;27.908;2023-09-18T11:45:55;6.87;;;3.80;;
71038;SDS011;58692;43.212;27.908;2023-09-18T11:48:22;8.50;;;3.78;;
71038;SDS011;58692;43.212;27.908;2023-09-18T11:50:53;7.82;;;3.60;;
71038;SDS011;58692;43.212;27.908;2023-09-18T11:53:21;7.57;;;3.80;;
71038;SDS011;58692;43.212;27.908;2023-09-18T11:55:49;7.45;;;3.72;;
71038;SDS011;58692;43.212;27.908;2023-09-18T11:58:15;6.53;;;3.23;;
71038;SDS011;58692;43.212;27.908;2023-09-18T12:00:41;6.88;;;3.70;;
71038;SDS011;58692;43.212;27.908;2023-09-18T12:05:43;8.43;;;4.30;;
71038;SDS011;58692;43.212;27.908;2023-09-18T12:08:11;7.00;;;3.70;;
71038;SDS011;58692;43.212;27.908;2023-09-18T12:10:40;8.70;;;3.97;;
71038;SDS011;58692;43.212;27.908;2023-09-18T12:13:06;7.85;;;3.78;;
71038;SDS011;58692;43.212;27.908;2023-09-18T12:15:33;8.07;;;3.70;;
71038;SDS011;58692;43.212;27.908;2023-09-18T12:18:04;7.13;;;3.55;;
71038;SDS011;58692;43.212;27.908;2023-09-18T12:20:32;10.10;;;3.90;;
71038;SDS011;58692;43.212;27.908;2023-09-18T12:22:59;7.57;;;3.70;;
71038;SDS011;58692;43.212;27.908;2023-09-18T12:25:25;11.35;;;4.00;;
71038;SDS011;58692;43.212;27.908;2023-09-18T12:27:51;8.05;;;3.78;;
71038;SDS011;58692;43.212;27.908;2023-09-18T12:30:18;10.63;;;3.57;;
71038;SDS011;58692;43.212;27.908;2023-09-18T12:32:45;6.35;;;3.40;;
71038;SDS011;58692;43.212;27.908;2023-09-18T12:35:13;9.25;;;4.30;;
71038;SDS011;58692;43.212;27.908;2023-09-18T12:37:39;8.27;;;3.80;;
71038;SDS011;58692;43.212;27.908;2023-09-18T12:40:06;6.72;;;3.47;;
71038;SDS011;58692;43.212;27.908;2023-09-18T12:42:45;10.17;;;3.60;;
71038;SDS011;58692;43.212;27.908;2023-09-18T12:45:11;8.30;;;3.88;;
71038;SDS011;58692;43.212;27.908;2023-09-18T12:47:37;10.90;;;3.88;;
71038;SDS011;58692;43.212;27.908;2023-09-18T12:50:04;8.07;;;3.60;;
71038;SDS011;58692;43.212;27.908;2023-09-18T12:52:32;7.10;;;3.25;;
71038;SDS011;58692;43.212;27.908;2023-09-18T12:54:58;7.00;;;3.30;;
71038;SDS011;58692;43.212;27.908;2023-09-18T12:57:26;7.68;;;2.90;;
71038;SDS011;58692;43.212;27.908;2023-09-18T12:59:53;9.20;;;3.50;;
71038;SDS011;58692;43.212;27.908;2023-09-18T13:02:20;7.03;;;3.00;;
71038;SDS011;58692;43.212;27.908;2023-09-18T13:04:53;7.07;;;3.30;;
71038;SDS011;58692;43.212;27.908;2023-09-18T13:07:20;7.00;;;3.22;;
71038;SDS011;58692;43.212;27.908;2023-09-18T13:15:14;6.72;;;3.60;;
71038;SDS011;58692;43.212;27.908;2023-09-18T13:17:53;8.70;;;4.00;;
71038;SDS011;58692;43.212;27.908;2023-09-18T13:20:21;8.25;;;3.95;;
71038;SDS011;58692;43.212;27.908;2023-09-18T13:22:50;9.05;;;3.95;;
71038;SDS011;58692;43.212;27.908;2023-09-18T13:25:21;9.30;;;3.97;;
71038;SDS011;58692;43.212;27.908;2023-09-18T13:27:48;8.75;;;4.50;;
71038;SDS011;58692;43.212;27.908;2023-09-18T13:30:14;8.30;;;3.33;;
71038;SDS011;58692;43.212;27.908;2023-09-18T13:32:42;9.27;;;3.85;;
71038;SDS011;58692;43.212;27.908;2023-09-18T13:35:09;9.07;;;3.90;;
71038;SDS011;58692;43.212;27.908;2023-09-18T13:37:36;7.22;;;3.65;;
71038;SDS011;58692;43.212;27.908;2023-09-18T13:40:03;7.68;;;3.95;;
71038;SDS011;58692;43.212;27.908;2023-09-18T13:42:33;8.13;;;4.00;;
71038;SDS011;58692;43.212;27.908;2023-09-18T13:44:59;7.68;;;3.50;;
71038;SDS011;58692;43.212;27.908;2023-09-18T13:47:27;8.20;;;3.67;;
71038;SDS011;58692;43.212;27.908;2023-09-18T13:49:54;8.55;;;4.20;;
71038;SDS011;58692;43.212;27.908;2023-09-18T13:52:26;7.97;;;3.97;;
71038;SDS011;58692;43.212;27.908;2023-09-18T13:54:53;9.63;;;3.77;;
71038;SDS011;58692;43.212;27.908;2023-09-18T13:57:19;7.32;;;4.00;;
71038;SDS011;58692;43.212;27.908;2023-09-18T13:59:50;8.73;;;4.50;;
71038;SDS011;58692;43.212;27.908;2023-09-18T14:02:38;8.50;;;4.20;;
71038;SDS011;58692;43.212;27.908;2023-09-18T14:05:05;7.78;;;4.30;;
71038;SDS011;58692;43.212;27.908;2023-09-18T14:07:31;7.88;;;4.30;;
71038;SDS011;58692;43.212;27.908;2023-09-18T14:09:56;10.43;;;4.47;;
71038;SDS011;58692;43.212;27.908;2023-09-18T14:12:24;6.90;;;3.88;;
71038;SDS011;58692;43.212;27.908;2023-09-18T14:14:50;8.65;;;3.97;;
71038;SDS011;58692;43.212;27.908;2023-09-18T14:17:16;7.53;;;3.80;;
71038;SDS011;58692;43.212;27.908;2023-09-18T14:19:43;7.30;;;3.80;;
71038;SDS011;58692;43.212;27.908;2023-09-18T14:22:09;10.25;;;3.97;;
71038;SDS011;58692;43.212;27.908;2023-09-18T14:24:38;8.32;;;4.30;;
71038;SDS011;58692;43.212;27.908;2023-09-18T14:27:09;10.05;;;4.10;;
71038;SDS011;58692;43.212;27.908;2023-09-18T14:29:36;9.70;;;3.78;;
71038;SDS011;58692;43.212;27.908;2023-09-18T14:32:02;8.43;;;4.57;;
71038;SDS011;58692;43.212;27.908;2023-09-18T14:34:29;8.57;;;4.30;;
71038;SDS011;58692;43.212;27.908;2023-09-18T14:36:55;8.55;;;4.32;;
71038;SDS011;58692;43.212;27.908;2023-09-18T14:39:22;8.45;;;4.47;;
71038;SDS011;58692;43.212;27.908;2023-09-18T14:41:47;10.27;;;4.60;;
71038;SDS011;58692;43.212;27.908;2023-09-18T14:44:17;7.35;;;4.20;;
71038;SDS011;58692;43.212;27.908;2023-09-18T14:46:48;8.73;;;4.30;;
71038;SDS011;58692;43.212;27.908;2023-09-18T14:49:14;7.57;;;4.40;;
71038;SDS011;58692;43.212;27.908;2023-09-18T14:51:40;10.17;;;3.90;;